createdAt,value
2019-02-23T00:00:35.176Z,32.28
2019-02-23T00:03:09.698Z,30.92
2019-02-23T00:05:38.422Z,28.90
2019-02-23T00:08:07.427Z,33.48
2019-02-23T00:10:35.663Z,28.95
2019-02-23T00:13:20.474Z,29.15
2019-02-23T00:15:49.274Z,29.92
2019-02-23T00:18:19.102Z,28.75
2019-02-23T00:20:47.786Z,28.32
2019-02-23T00:23:18.265Z,26.87
2019-02-23T00:25:46.624Z,27.37
2019-02-23T00:28:21.286Z,31.68
2019-02-23T00:30:56.874Z,28.80
2019-02-23T00:33:23.886Z,26.57
2019-02-23T00:35:51.055Z,26.52
2019-02-23T00:38:21.922Z,30.17
2019-02-23T00:40:50.008Z,28.30
2019-02-23T00:43:19.283Z,25.72
2019-02-23T00:45:47.609Z,26.05
2019-02-23T00:48:15.773Z,25.88
2019-02-23T00:50:43.970Z,21.65
2019-02-23T00:53:12.424Z,25.15
2019-02-23T00:55:43.518Z,23.30
2019-02-23T00:58:11.818Z,24.20
2019-02-23T01:00:39.913Z,24.47
2019-02-23T01:03:08.678Z,26.10
2019-02-23T01:05:35.754Z,25.37
2019-02-23T01:08:12.398Z,31.73
2019-02-23T01:10:39.567Z,24.37
2019-02-23T01:13:06.848Z,30.05
2019-02-23T01:15:38.938Z,29.65
2019-02-23T01:18:18.061Z,32.67
2019-02-23T01:20:48.658Z,29.85
2019-02-23T01:23:17.118Z,25.45
2019-02-23T01:25:47.737Z,24.63
2019-02-23T01:28:19.413Z,28.80
2019-02-23T01:30:49.489Z,24.55
2019-02-23T01:33:18.426Z,27.32
2019-02-23T01:35:47.730Z,25.08
2019-02-23T01:38:15.651Z,27.93
2019-02-23T01:40:44.949Z,24.65
2019-02-23T01:43:17.271Z,29.42
2019-02-23T01:45:49.398Z,26.52
2019-02-23T01:48:18.028Z,24.55
2019-02-23T01:50:51.222Z,25.80
2019-02-23T01:53:28.895Z,28.90
2019-02-23T01:55:56.191Z,26.35
2019-02-23T01:58:29.053Z,24.85
2019-02-23T02:01:00.916Z,23.92
2019-02-23T02:03:28.584Z,25.35
2019-02-23T02:06:03.427Z,28.05
2019-02-23T02:08:31.483Z,21.07
2019-02-23T02:11:04.682Z,23.22
2019-02-23T02:13:32.659Z,23.80
2019-02-23T02:16:00.762Z,23.02
2019-02-23T02:18:28.699Z,20.37
2019-02-23T02:20:58.762Z,24.07
2019-02-23T02:23:26.276Z,21.35
2019-02-23T02:26:01.322Z,22.40
2019-02-23T02:28:34.203Z,18.67
2019-02-23T02:31:01.380Z,19.77
2019-02-23T02:33:29.861Z,19.87
2019-02-23T02:35:59.506Z,19.50
2019-02-23T02:38:32.390Z,22.70
2019-02-23T02:40:59.603Z,21.25
2019-02-23T02:43:29.255Z,21.80
2019-02-23T02:45:56.709Z,21.45
2019-02-23T02:48:25.104Z,21.82
2019-02-23T02:50:53.693Z,19.65
2019-02-23T02:53:21.782Z,20.23
2019-02-23T02:55:53.468Z,23.95
2019-02-23T02:58:27.590Z,21.70
2019-02-23T03:00:56.611Z,20.52
2019-02-23T03:03:25.244Z,19.85
2019-02-23T03:05:53.875Z,20.57
2019-02-23T03:08:22.618Z,19.90
2019-02-23T03:10:54.690Z,20.35
2019-02-23T03:13:23.982Z,19.75
2019-02-23T03:15:52.471Z,18.40
2019-02-23T03:18:25.678Z,17.30
2019-02-23T03:20:59.677Z,17.85
2019-02-23T03:23:32.938Z,20.00
2019-02-23T03:26:01.111Z,19.12
2019-02-23T03:28:30.331Z,20.80
2019-02-23T03:31:04.254Z,18.60
2019-02-23T03:33:35.506Z,20.35
2019-02-23T03:36:03.014Z,16.62
2019-02-23T03:38:35.247Z,18.10
2019-02-23T03:41:02.763Z,19.98
2019-02-23T03:43:37.899Z,18.82
2019-02-23T03:46:10.217Z,15.10
2019-02-23T03:48:43.388Z,17.23
2019-02-23T03:51:12.210Z,18.02
2019-02-23T03:53:40.750Z,18.82
2019-02-23T03:56:15.359Z,20.48
2019-02-23T03:58:42.994Z,16.93
2019-02-23T04:01:22.398Z,20.57
2019-02-23T04:03:52.023Z,15.63
2019-02-23T04:06:23.981Z,19.00
2019-02-23T04:08:52.223Z,16.45
2019-02-23T04:11:20.551Z,20.80
2019-02-23T04:13:51.937Z,19.37
2019-02-23T04:16:27.413Z,15.23
2019-02-23T04:19:02.612Z,19.45
2019-02-23T04:21:31.286Z,16.50
2019-02-23T04:23:59.962Z,16.42
2019-02-23T04:26:32.750Z,18.37
2019-02-23T04:29:01.371Z,17.65
2019-02-23T04:31:34.693Z,19.10
2019-02-23T04:34:05.541Z,17.62
2019-02-23T04:36:33.092Z,20.05
2019-02-23T04:39:01.574Z,18.35
2019-02-23T04:41:30.598Z,19.15
2019-02-23T04:44:04.410Z,16.12
2019-02-23T04:46:32.889Z,16.40
2019-02-23T04:49:02.645Z,16.25
2019-02-23T04:51:45.733Z,16.25
2019-02-23T04:54:15.600Z,16.75
2019-02-23T04:56:43.574Z,18.45
2019-02-23T04:59:11.691Z,16.75
2019-02-23T05:01:39.260Z,16.20
2019-02-23T05:04:06.594Z,18.27
2019-02-23T05:06:33.804Z,15.93
2019-02-23T05:09:01.149Z,14.73
2019-02-23T05:11:28.334Z,16.70
2019-02-23T05:14:00.637Z,19.35
2019-02-23T05:16:28.919Z,18.45
2019-02-23T05:18:57.088Z,16.62
2019-02-23T05:21:26.856Z,17.40
2019-02-23T05:23:55.623Z,16.20
2019-02-23T05:26:23.755Z,21.17
2019-02-23T05:28:52.048Z,17.45
2019-02-23T05:31:22.242Z,19.17
2019-02-23T05:33:50.262Z,17.40
2019-02-23T05:36:18.694Z,15.88
2019-02-23T05:38:46.334Z,18.07
2019-02-23T05:41:14.627Z,17.02
2019-02-23T05:43:43.315Z,17.30
2019-02-23T05:46:11.701Z,19.95
2019-02-23T05:48:39.883Z,17.27
2019-02-23T05:51:07.998Z,19.48
2019-02-23T05:53:37.080Z,15.18
2019-02-23T05:56:05.276Z,17.07
2019-02-23T05:58:33.553Z,18.77
2019-02-23T06:01:00.733Z,14.43
2019-02-23T06:03:28.248Z,17.48
2019-02-23T06:05:55.531Z,18.98
2019-02-23T06:08:23.099Z,16.12
2019-02-23T06:10:51.406Z,17.73
2019-02-23T06:13:19.762Z,19.92
2019-02-23T06:15:50.835Z,16.55
2019-02-23T06:18:19.042Z,15.45
2019-02-23T06:20:47.124Z,15.78
2019-02-23T06:23:15.519Z,17.85
2019-02-23T06:25:43.830Z,16.23
2019-02-23T06:28:11.051Z,16.10
2019-02-23T06:30:38.227Z,15.93
2019-02-23T06:33:05.386Z,18.30
2019-02-23T06:35:32.842Z,17.25
2019-02-23T06:38:00.054Z,20.12
2019-02-23T06:40:28.354Z,16.80
2019-02-23T06:42:57.898Z,18.12
2019-02-23T06:45:26.414Z,17.07
2019-02-23T06:47:55.646Z,19.90
2019-02-23T06:50:23.952Z,21.55
2019-02-23T06:52:51.951Z,21.50
2019-02-23T06:55:20.031Z,21.12
2019-02-23T06:57:48.575Z,17.05
2019-02-23T07:00:16.435Z,21.00
2019-02-23T07:02:44.323Z,18.87
2019-02-23T07:05:12.079Z,20.57
2019-02-23T07:07:39.268Z,22.35
2019-02-23T07:10:07.838Z,19.48
2019-02-23T07:12:37.114Z,20.80
2019-02-23T07:15:08.922Z,18.00
2019-02-23T07:17:37.082Z,21.45
2019-02-23T07:20:06.538Z,20.10
2019-02-23T07:22:35.026Z,18.48
2019-02-23T07:25:03.495Z,17.75
2019-02-23T07:27:31.722Z,17.92
2019-02-23T07:30:00.118Z,20.30
2019-02-23T07:32:31.870Z,18.65
2019-02-23T07:34:58.352Z,19.70
2019-02-23T07:37:25.448Z,20.17
2019-02-23T07:39:52.730Z,19.40
2019-02-23T07:42:20.009Z,20.90
2019-02-23T07:44:48.447Z,23.07
2019-02-23T07:47:17.079Z,20.27
2019-02-23T07:49:45.683Z,23.38
2019-02-23T07:52:14.260Z,22.15
2019-02-23T07:54:42.456Z,24.85
2019-02-23T07:57:10.761Z,24.87
2019-02-23T07:59:39.210Z,23.62
2019-02-23T08:02:07.389Z,23.02
2019-02-23T08:04:34.662Z,26.23
2019-02-23T08:07:01.852Z,25.77
2019-02-23T08:09:29.078Z,25.23
2019-02-23T08:11:56.303Z,24.10
2019-02-23T08:14:26.535Z,28.70
2019-02-23T08:16:54.787Z,26.15
2019-02-23T08:19:22.980Z,21.07
2019-02-23T08:21:51.323Z,23.98
2019-02-23T08:24:19.527Z,23.25
2019-02-23T08:26:47.735Z,25.60
2019-02-23T08:29:16.074Z,22.90
2019-02-23T08:31:44.138Z,20.37
2019-02-23T08:34:12.371Z,22.70
2019-02-23T08:36:40.640Z,19.57
2019-02-23T08:39:08.949Z,20.52
2019-02-23T08:41:37.274Z,19.15
2019-02-23T08:44:04.350Z,19.12
2019-02-23T08:46:31.528Z,19.07
2019-02-23T08:48:58.703Z,18.70
2019-02-23T08:51:25.885Z,17.80
2019-02-23T08:53:54.058Z,17.92
2019-02-23T08:56:21.391Z,19.02
2019-02-23T08:58:49.823Z,17.20
2019-02-23T09:01:18.112Z,18.92
2019-02-23T09:03:51.287Z,21.90
2019-02-23T09:06:19.362Z,17.20
2019-02-23T09:08:47.537Z,15.55
2019-02-23T09:11:15.865Z,17.45
2019-02-23T09:13:45.654Z,19.23
2019-02-23T09:16:13.635Z,18.40
2019-02-23T09:18:40.623Z,21.37
2019-02-23T09:21:07.898Z,18.15
2019-02-23T09:23:37.019Z,20.50
2019-02-23T09:26:04.358Z,15.28
2019-02-23T09:28:32.590Z,17.35
2019-02-23T09:31:00.761Z,14.25
2019-02-23T09:33:28.954Z,16.55
2019-02-23T09:36:00.588Z,17.35
2019-02-23T09:38:28.698Z,14.60
2019-02-23T09:40:56.920Z,17.37
2019-02-23T09:43:25.103Z,14.43
2019-02-23T09:45:53.187Z,14.80
2019-02-23T09:48:21.440Z,14.03
2019-02-23T09:50:48.747Z,10.55
2019-02-23T09:53:16.294Z,12.80
2019-02-23T09:55:43.710Z,15.90
2019-02-23T09:58:10.946Z,15.18
2019-02-23T10:00:39.142Z,13.40
2019-02-23T10:03:07.370Z,15.28
2019-02-23T10:05:38.131Z,12.40
2019-02-23T10:08:06.113Z,13.40
2019-02-23T10:10:34.662Z,12.85
2019-02-23T10:13:02.831Z,12.33
2019-02-23T10:15:31.095Z,13.60
2019-02-23T10:18:13.502Z,12.10
2019-02-23T10:20:41.992Z,15.00
2019-02-23T10:23:10.181Z,12.15
2019-02-23T10:25:37.535Z,13.45
2019-02-23T10:28:04.716Z,14.40
2019-02-23T10:30:32.130Z,12.55
2019-02-23T10:32:59.306Z,13.13
2019-02-23T10:35:26.715Z,11.15
2019-02-23T10:37:55.290Z,13.08
2019-02-23T10:40:23.578Z,12.58
2019-02-23T10:42:51.847Z,12.58
2019-02-23T10:45:20.372Z,14.00
2019-02-23T10:47:50.243Z,13.03
2019-02-23T10:50:19.080Z,12.25
2019-02-23T10:52:47.257Z,12.15
2019-02-23T10:55:15.490Z,11.97
2019-02-23T10:57:43.686Z,12.90
2019-02-23T11:00:19.470Z,13.65
2019-02-23T11:02:46.787Z,11.97
2019-02-23T11:05:14.058Z,10.55
2019-02-23T11:07:41.257Z,12.15
2019-02-23T11:10:08.990Z,13.05
2019-02-23T11:12:37.159Z,14.50
2019-02-23T11:15:06.684Z,15.13
2019-02-23T11:17:34.928Z,13.15
2019-02-23T11:20:03.847Z,15.20
2019-02-23T11:22:32.218Z,11.30
2019-02-23T11:25:00.702Z,12.23
2019-02-23T11:27:29.044Z,11.85
2019-02-23T11:29:57.739Z,12.03
2019-02-23T11:32:26.359Z,9.93
2019-02-23T11:34:53.591Z,8.68
2019-02-23T11:37:21.174Z,7.58
2019-02-23T11:39:48.415Z,9.43
2019-02-23T11:42:15.607Z,10.82
2019-02-23T11:44:44.627Z,7.40
2019-02-23T11:47:13.285Z,6.40
2019-02-23T11:49:41.758Z,7.62
2019-02-23T11:52:10.254Z,7.65
2019-02-23T11:54:39.025Z,6.70
2019-02-23T11:57:07.430Z,7.00
2019-02-23T11:59:35.722Z,8.13
2019-02-23T12:02:04.776Z,6.03
2019-02-23T12:04:32.070Z,6.45
2019-02-23T12:06:59.891Z,7.45
2019-02-23T12:09:29.677Z,5.83
2019-02-23T12:11:57.318Z,7.30
2019-02-23T12:14:25.918Z,5.42
2019-02-23T12:16:54.423Z,6.97
2019-02-23T12:19:22.769Z,5.10
2019-02-23T12:21:51.314Z,6.42
2019-02-23T12:24:20.139Z,5.97
2019-02-23T12:26:48.455Z,5.28
2019-02-23T12:29:20.500Z,5.60
2019-02-23T12:31:50.279Z,5.17
2019-02-23T12:34:19.247Z,5.33
2019-02-23T12:36:46.998Z,5.55
2019-02-23T12:39:15.061Z,5.25
2019-02-23T12:41:43.019Z,5.28
2019-02-23T12:44:11.003Z,5.12
2019-02-23T12:46:38.757Z,6.05
2019-02-23T12:49:07.823Z,5.10
2019-02-23T12:51:36.301Z,6.22
2019-02-23T12:54:05.202Z,7.83
2019-02-23T12:56:33.780Z,8.40
2019-02-23T12:59:02.594Z,5.60
2019-02-23T13:01:33.599Z,4.30
2019-02-23T13:04:01.971Z,4.60
2019-02-23T13:06:30.577Z,4.70
2019-02-23T13:09:22.887Z,5.70
2019-02-23T13:11:55.603Z,8.30
2019-02-23T13:14:55.324Z,9.37
2019-02-23T13:18:04.976Z,8.90
2019-02-23T13:20:50.919Z,11.10
2019-02-23T13:24:02.168Z,9.17
2019-02-23T13:27:02.991Z,9.30
2019-02-23T13:30:04.314Z,14.03
2019-02-23T13:33:12.662Z,10.53
2019-02-23T13:36:09.292Z,10.53
2019-02-23T13:39:10.972Z,13.27
2019-02-23T13:42:31.816Z,9.47
2019-02-23T13:45:34.850Z,6.67
2019-02-23T13:48:43.678Z,7.97
2019-02-23T13:51:46.550Z,9.47
2019-02-23T13:55:00.027Z,9.40
2019-02-23T13:57:57.258Z,10.40
2019-02-23T14:01:10.895Z,7.53
2019-02-23T14:04:12.049Z,11.43
2019-02-23T14:07:05.736Z,9.90
2019-02-23T14:10:18.795Z,10.17
2019-02-23T14:13:25.287Z,8.67
2019-02-23T14:16:47.515Z,10.27
2019-02-23T14:19:48.083Z,9.67
2019-02-23T14:22:36.034Z,10.83
2019-02-23T14:25:40.702Z,9.43
2019-02-23T14:29:05.367Z,11.33
2019-02-23T14:32:20.130Z,12.50
2019-02-23T14:35:10.602Z,12.90
2019-02-23T14:38:37.782Z,11.83
2019-02-23T14:41:47.736Z,13.07
2019-02-23T14:45:08.878Z,14.50
2019-02-23T14:48:12.719Z,12.60
2019-02-23T14:51:21.142Z,11.97
2019-02-23T14:54:22.510Z,11.40
2019-02-23T14:57:55.879Z,12.67
2019-02-23T15:01:05.219Z,10.70
2019-02-23T15:04:00.201Z,13.77
2019-02-23T15:07:23.181Z,13.30
2019-02-23T15:10:10.613Z,15.83
2019-02-23T15:13:15.738Z,14.97
2019-02-23T15:16:17.504Z,14.30
2019-02-23T15:18:58.115Z,14.33
2019-02-23T15:21:56.223Z,16.70
2019-02-23T15:25:00.340Z,16.53
2019-02-23T15:27:46.760Z,16.33
2019-02-23T15:30:59.142Z,17.83
2019-02-23T15:34:08.568Z,17.60
2019-02-23T15:37:32.900Z,17.32
2019-02-23T15:40:24.004Z,16.30
2019-02-23T15:43:23.525Z,16.23
2019-02-23T15:46:29.815Z,16.10
2019-02-23T15:49:30.751Z,16.10
2019-02-23T15:52:06.232Z,16.93
2019-02-23T15:54:34.668Z,20.77
2019-02-23T15:57:05.636Z,16.50
2019-02-23T15:59:33.876Z,14.40
2019-02-23T16:02:03.395Z,13.53
2019-02-23T16:04:31.761Z,16.00
2019-02-23T16:07:05.896Z,15.35
2019-02-23T16:09:34.467Z,17.67
2019-02-23T16:12:02.786Z,17.07
2019-02-23T16:14:30.370Z,17.52
2019-02-23T16:16:57.703Z,16.25
2019-02-23T16:19:53.739Z,19.15
2019-02-23T16:22:25.951Z,21.30
2019-02-23T16:24:53.376Z,15.72
2019-02-23T16:27:20.625Z,18.30
2019-02-23T16:29:47.794Z,16.17
2019-02-23T16:32:14.799Z,17.60
2019-02-23T16:34:42.967Z,16.55
2019-02-23T16:37:12.306Z,18.02
2019-02-23T16:39:40.678Z,19.50
2019-02-23T16:42:09.271Z,18.05
2019-02-23T16:44:37.420Z,15.68
2019-02-23T16:47:06.015Z,18.57
2019-02-23T16:49:39.076Z,17.80
2019-02-23T16:52:09.108Z,19.32
2019-02-23T16:54:35.714Z,17.50
2019-02-23T16:57:03.007Z,16.45
2019-02-23T16:59:30.184Z,20.60
2019-02-23T17:01:58.405Z,19.67
2019-02-23T17:04:28.207Z,18.52
2019-02-23T17:06:56.550Z,19.32
2019-02-23T17:09:25.810Z,17.07
2019-02-23T17:11:54.422Z,18.05
2019-02-23T17:14:22.657Z,18.55
2019-02-23T17:16:53.141Z,19.27
2019-02-23T17:19:21.869Z,17.23
2019-02-23T17:21:56.163Z,20.43
2019-02-23T17:24:24.719Z,20.75
2019-02-23T17:26:56.302Z,19.17
2019-02-23T17:29:25.187Z,18.25
2019-02-23T17:31:54.086Z,19.25
2019-02-23T17:34:22.520Z,18.10
2019-02-23T17:36:51.322Z,18.35
2019-02-23T17:39:23.567Z,21.77
2019-02-23T17:41:52.002Z,17.82
2019-02-23T17:44:20.490Z,17.40
2019-02-23T17:46:50.932Z,24.10
2019-02-23T17:49:20.016Z,18.77
2019-02-23T17:51:52.179Z,19.20
2019-02-23T17:54:19.270Z,18.52
2019-02-23T17:56:46.868Z,18.37
2019-02-23T17:59:14.450Z,16.87
2019-02-23T18:01:42.053Z,18.40
2019-02-23T18:04:10.787Z,22.07
2019-02-23T18:06:41.253Z,18.02
2019-02-23T18:09:10.530Z,23.38
2019-02-23T18:11:39.047Z,17.95
2019-02-23T18:14:07.512Z,21.60
2019-02-23T18:16:36.510Z,18.50
2019-02-23T18:19:11.048Z,21.82
2019-02-23T18:21:38.481Z,23.83
2019-02-23T18:24:06.233Z,22.45
2019-02-23T18:26:33.817Z,20.32
2019-02-23T18:29:01.075Z,22.05
2019-02-23T18:31:34.179Z,22.25
2019-02-23T18:34:03.890Z,24.43
2019-02-23T18:36:32.350Z,19.67
2019-02-23T18:39:00.926Z,21.00
2019-02-23T18:41:29.337Z,21.85
2019-02-23T18:44:04.336Z,22.17
2019-02-23T18:46:33.041Z,20.92
2019-02-23T18:49:01.366Z,20.15
2019-02-23T18:51:29.626Z,21.00
2019-02-23T18:53:58.383Z,22.32
2019-02-23T18:56:40.020Z,24.20
2019-02-23T18:59:07.803Z,23.25
2019-02-23T19:01:34.992Z,26.37
2019-02-23T19:04:02.858Z,29.32
2019-02-23T19:06:37.378Z,31.35
2019-02-23T19:09:05.754Z,28.35
2019-02-23T19:11:33.314Z,28.35
2019-02-23T19:14:02.103Z,23.98
2019-02-23T19:16:30.727Z,26.15
2019-02-23T19:19:00.610Z,25.92
2019-02-23T19:21:29.238Z,24.35
2019-02-23T19:23:57.820Z,28.77
2019-02-23T19:26:26.263Z,27.32
2019-02-23T19:28:54.710Z,23.73
2019-02-23T19:31:25.684Z,28.20
2019-02-23T19:33:53.879Z,27.80
2019-02-23T19:36:22.026Z,27.05
2019-02-23T19:38:49.247Z,27.40
2019-02-23T19:41:16.282Z,26.33
2019-02-23T19:43:43.385Z,26.23
2019-02-23T19:46:14.225Z,27.50
2019-02-23T19:48:41.409Z,22.82
2019-02-23T19:51:09.733Z,27.58
2019-02-23T19:53:38.918Z,26.90
2019-02-23T19:56:07.486Z,25.55
2019-02-23T19:58:40.574Z,25.72
2019-02-23T20:01:08.863Z,27.20
2019-02-23T20:03:37.134Z,22.75
2019-02-23T20:06:05.666Z,26.48
2019-02-23T20:08:34.125Z,32.23
2019-02-23T20:11:07.214Z,28.30
2019-02-23T20:13:34.445Z,26.55
2019-02-23T20:16:01.484Z,24.45
2019-02-23T20:18:28.910Z,24.87
2019-02-23T20:20:55.970Z,20.05
2019-02-23T20:23:24.853Z,22.87
2019-02-23T20:25:53.094Z,20.35
2019-02-23T20:28:23.560Z,24.63
2019-02-23T20:30:51.837Z,30.23
2019-02-23T20:33:20.266Z,26.27
2019-02-23T20:35:51.237Z,28.35
2019-02-23T20:38:19.895Z,34.00
2019-02-23T20:40:48.295Z,34.10
2019-02-23T20:43:16.375Z,30.08
2019-02-23T20:45:44.041Z,28.52
2019-02-23T20:48:11.441Z,33.73
2019-02-23T20:50:40.178Z,33.35
2019-02-23T20:53:09.227Z,32.05
2019-02-23T20:55:37.865Z,35.95
2019-02-23T20:58:06.299Z,35.73
2019-02-23T21:00:35.335Z,30.80
2019-02-23T21:03:03.402Z,33.38
2019-02-23T21:05:32.186Z,36.60
2019-02-23T21:08:00.721Z,32.03
2019-02-23T21:10:29.355Z,31.07
2019-02-23T21:12:58.780Z,33.20
2019-02-23T21:15:26.324Z,25.55
2019-02-23T21:17:53.586Z,29.32
2019-02-23T21:20:21.163Z,25.52
2019-02-23T21:22:49.272Z,31.95
2019-02-23T21:25:17.950Z,25.52
2019-02-23T21:27:46.862Z,25.57
2019-02-23T21:30:15.390Z,23.65
2019-02-23T21:32:44.563Z,24.90
2019-02-23T21:35:13.175Z,27.50
2019-02-23T21:37:41.656Z,27.32
2019-02-23T21:40:12.084Z,22.40
2019-02-23T21:42:40.798Z,26.30
2019-02-23T21:45:09.424Z,26.62
2019-02-23T21:47:37.291Z,22.22
2019-02-23T21:50:04.754Z,20.62
2019-02-23T21:52:32.564Z,27.37
2019-02-23T21:55:00.435Z,19.77
2019-02-23T21:57:27.775Z,24.18
2019-02-23T21:59:55.966Z,19.52
2019-02-23T22:02:24.762Z,22.70
2019-02-23T22:04:54.066Z,17.42
2019-02-23T22:07:22.797Z,18.82
2019-02-23T22:09:55.038Z,19.75
2019-02-23T22:12:23.957Z,19.60
2019-02-23T22:14:52.505Z,18.32
2019-02-23T22:17:21.603Z,14.98
2019-02-23T22:19:50.232Z,17.40
2019-02-23T22:22:17.596Z,12.75
2019-02-23T22:24:45.195Z,17.30
2019-02-23T22:27:13.027Z,13.58
2019-02-23T22:29:40.665Z,14.05
2019-02-23T22:32:08.859Z,13.00
2019-02-23T22:34:37.406Z,13.58
2019-02-23T22:37:06.208Z,13.53
2019-02-23T22:39:35.011Z,17.37
2019-02-23T22:42:04.293Z,15.20
2019-02-23T22:44:32.867Z,13.68
2019-02-23T22:47:02.083Z,12.60
2019-02-23T22:49:30.865Z,14.95
2019-02-23T22:52:02.089Z,14.68
2019-02-23T22:54:29.296Z,15.13
2019-02-23T22:57:05.368Z,18.90
2019-02-23T22:59:32.714Z,15.98
2019-02-23T23:02:00.546Z,14.18
2019-02-23T23:04:28.185Z,15.70
2019-02-23T23:06:56.470Z,14.85
2019-02-23T23:09:25.196Z,15.63
2019-02-23T23:11:55.480Z,14.63
2019-02-23T23:14:23.767Z,14.30
2019-02-23T23:16:52.733Z,13.35
2019-02-23T23:19:21.138Z,13.72
2019-02-23T23:21:49.647Z,15.78
2019-02-23T23:24:18.563Z,14.43
2019-02-23T23:26:46.758Z,17.87
2019-02-23T23:29:15.611Z,17.67
2019-02-23T23:31:43.254Z,18.67
2019-02-23T23:34:10.419Z,20.72
2019-02-23T23:36:38.570Z,19.55
2019-02-23T23:39:06.702Z,23.32
2019-02-23T23:41:35.635Z,19.52
2019-02-23T23:44:04.682Z,20.57
2019-02-23T23:46:33.866Z,21.20
2019-02-23T23:49:02.461Z,20.02
2019-02-23T23:51:31.074Z,17.50
2019-02-23T23:54:00.224Z,18.80
2019-02-23T23:56:29.080Z,21.27
2019-02-23T23:58:57.974Z,18.07
